createdAt,value
2017-08-09T00:00:26.161Z,16.40
2017-08-09T00:02:54.230Z,16.30
2017-08-09T00:05:22.343Z,16.20
2017-08-09T00:07:50.414Z,16.30
2017-08-09T00:10:18.480Z,16.20
2017-08-09T00:12:46.563Z,16.20
2017-08-09T00:15:14.643Z,16.20
2017-08-09T00:17:42.724Z,16.10
2017-08-09T00:20:10.805Z,16.00
2017-08-09T00:22:38.883Z,16.20
2017-08-09T00:25:06.963Z,16.10
2017-08-09T00:27:35.037Z,16.10
2017-08-09T00:30:03.127Z,16.10
2017-08-09T00:32:31.206Z,16.20
2017-08-09T00:34:59.345Z,16.30
2017-08-09T00:37:27.434Z,16.30
2017-08-09T00:39:55.511Z,16.50
2017-08-09T00:42:23.602Z,16.60
2017-08-09T00:44:51.681Z,16.50
2017-08-09T00:47:19.754Z,16.70
2017-08-09T00:49:47.832Z,16.70
2017-08-09T00:52:15.904Z,16.60
2017-08-09T00:54:43.978Z,16.60
2017-08-09T00:57:12.048Z,16.50
2017-08-09T00:59:40.134Z,16.60
2017-08-09T01:02:08.203Z,16.30
2017-08-09T01:04:36.403Z,16.20
2017-08-09T01:07:04.497Z,16.20
2017-08-09T01:09:32.582Z,16.20
2017-08-09T01:12:00.654Z,16.10
2017-08-09T01:14:28.743Z,16.10
2017-08-09T01:16:57.038Z,16.00
2017-08-09T01:19:25.120Z,16.10
2017-08-09T01:21:53.213Z,16.10
2017-08-09T01:24:21.281Z,16.20
2017-08-09T01:26:49.366Z,16.00
2017-08-09T01:29:17.453Z,16.00
2017-08-09T01:31:45.537Z,16.10
2017-08-09T01:34:13.626Z,16.10
2017-08-09T01:36:41.775Z,16.00
2017-08-09T01:39:09.865Z,16.00
2017-08-09T01:41:38.117Z,16.00
2017-08-09T01:44:06.211Z,16.00
2017-08-09T01:46:34.292Z,16.00
2017-08-09T01:49:02.362Z,15.90
2017-08-09T01:51:30.435Z,16.00
2017-08-09T01:53:58.524Z,16.00
2017-08-09T01:56:26.604Z,16.00
2017-08-09T01:58:54.680Z,16.10
2017-08-09T02:01:22.767Z,16.20
2017-08-09T02:03:50.886Z,16.10
2017-08-09T02:06:18.962Z,16.10
2017-08-09T02:08:47.047Z,16.10
2017-08-09T02:11:15.128Z,16.00
2017-08-09T02:13:43.209Z,16.00
2017-08-09T02:16:11.287Z,16.10
2017-08-09T02:18:39.375Z,16.20
2017-08-09T02:21:07.456Z,16.30
2017-08-09T02:23:35.547Z,16.50
2017-08-09T02:26:03.623Z,16.30
2017-08-09T02:28:31.715Z,16.20
2017-08-09T02:30:59.795Z,16.00
2017-08-09T02:33:27.935Z,16.10
2017-08-09T02:35:56.167Z,16.00
2017-08-09T02:38:24.264Z,16.00
2017-08-09T02:40:52.341Z,16.00
2017-08-09T02:43:20.407Z,16.10
2017-08-09T02:45:48.487Z,16.10
2017-08-09T02:48:16.555Z,16.10
2017-08-09T02:50:44.649Z,16.10
2017-08-09T02:53:12.715Z,16.20
2017-08-09T02:55:40.795Z,16.40
2017-08-09T02:58:08.865Z,16.40
2017-08-09T03:00:36.938Z,16.40
2017-08-09T03:03:05.011Z,16.30
2017-08-09T03:05:33.086Z,16.10
2017-08-09T03:08:01.158Z,16.10
2017-08-09T03:10:29.254Z,16.00
2017-08-09T03:12:57.332Z,16.00
2017-08-09T03:15:25.411Z,16.10
2017-08-09T03:17:53.491Z,16.10
2017-08-09T03:20:21.560Z,16.00
2017-08-09T03:25:26.854Z,15.90
2017-08-09T03:27:54.939Z,16.00
2017-08-09T03:30:23.011Z,15.90
2017-08-09T03:32:51.090Z,15.80
2017-08-09T03:35:19.154Z,15.90
2017-08-09T03:37:47.235Z,15.90
2017-08-09T03:40:15.311Z,15.80
2017-08-09T03:42:43.396Z,15.80
2017-08-09T03:45:11.577Z,16.00
2017-08-09T03:47:39.639Z,16.00
2017-08-09T03:50:07.717Z,15.90
2017-08-09T03:52:35.798Z,15.80
2017-08-09T03:55:03.875Z,15.80
2017-08-09T03:57:31.960Z,15.70
2017-08-09T04:00:00.051Z,15.70
2017-08-09T04:02:28.118Z,15.90
2017-08-09T04:04:56.217Z,15.80
2017-08-09T04:07:24.282Z,15.80
2017-08-09T04:09:52.362Z,15.90
2017-08-09T04:12:20.443Z,15.80
2017-08-09T04:14:48.635Z,15.70
2017-08-09T04:17:16.695Z,15.80
2017-08-09T04:19:44.788Z,15.60
2017-08-09T04:22:12.861Z,15.60
2017-08-09T04:24:40.934Z,15.70
2017-08-09T04:27:09.018Z,15.60
2017-08-09T04:29:37.091Z,15.60
2017-08-09T04:32:05.175Z,15.50
2017-08-09T04:34:33.246Z,15.50
2017-08-09T04:37:01.330Z,15.50
2017-08-09T04:39:29.412Z,15.60
2017-08-09T04:41:57.483Z,15.60
2017-08-09T04:44:25.658Z,15.60
2017-08-09T04:46:53.747Z,15.70
2017-08-09T04:49:21.819Z,15.80
2017-08-09T04:51:49.884Z,15.80
2017-08-09T04:54:17.972Z,16.00
2017-08-09T04:56:46.042Z,16.00
2017-08-09T04:59:14.137Z,16.00
2017-08-09T05:01:42.203Z,15.90
2017-08-09T05:04:10.308Z,15.80
2017-08-09T05:06:38.388Z,15.90
2017-08-09T05:09:06.474Z,16.00
2017-08-09T05:11:34.561Z,15.90
2017-08-09T05:14:02.715Z,16.00
2017-08-09T05:16:30.790Z,15.90
2017-08-09T05:18:58.888Z,15.90
2017-08-09T05:21:26.958Z,15.90
2017-08-09T05:23:55.026Z,15.80
2017-08-09T05:26:23.103Z,15.90
2017-08-09T05:28:51.171Z,15.90
2017-08-09T05:31:19.251Z,15.80
2017-08-09T05:33:47.327Z,16.00
2017-08-09T05:36:15.455Z,16.10
2017-08-09T05:38:43.532Z,16.20
2017-08-09T05:41:11.611Z,16.60
2017-08-09T05:43:39.747Z,16.90
2017-08-09T05:46:07.828Z,16.90
2017-08-09T05:48:35.909Z,16.70
2017-08-09T05:51:03.989Z,16.70
2017-08-09T05:53:32.071Z,16.70
2017-08-09T05:56:00.152Z,16.90
2017-08-09T05:58:28.228Z,16.90
2017-08-09T06:00:56.303Z,17.10
2017-08-09T06:03:24.382Z,17.10
2017-08-09T06:05:52.454Z,16.80
2017-08-09T06:08:20.538Z,16.80
2017-08-09T06:10:48.609Z,17.00
2017-08-09T06:13:16.688Z,16.90
2017-08-09T06:15:44.754Z,17.10
2017-08-09T06:18:12.846Z,17.20
2017-08-09T06:20:40.924Z,17.20
2017-08-09T06:23:09.008Z,17.10
2017-08-09T06:25:37.083Z,17.30
2017-08-09T06:28:05.148Z,17.30
2017-08-09T06:30:33.236Z,17.10
2017-08-09T06:33:01.311Z,17.10
2017-08-09T06:35:29.391Z,17.30
2017-08-09T06:37:57.463Z,17.60
2017-08-09T06:40:25.543Z,17.80
2017-08-09T06:42:53.612Z,17.90
2017-08-09T06:45:21.688Z,17.90
2017-08-09T06:47:49.762Z,18.40
2017-08-09T06:50:17.865Z,18.20
2017-08-09T06:52:45.939Z,18.90
2017-08-09T06:55:14.030Z,18.40
2017-08-09T06:57:42.124Z,18.50
2017-08-09T07:00:10.192Z,18.90
2017-08-09T07:02:38.273Z,18.50
2017-08-09T07:05:06.340Z,19.00
2017-08-09T07:07:34.423Z,19.60
2017-08-09T07:10:02.495Z,20.00
2017-08-09T07:12:30.569Z,20.50
2017-08-09T07:14:58.634Z,21.00
2017-08-09T07:17:26.707Z,21.20
2017-08-09T07:19:54.800Z,19.70
2017-08-09T07:22:23.055Z,19.70
2017-08-09T07:24:51.138Z,20.20
2017-08-09T07:27:19.232Z,20.00
2017-08-09T07:29:47.320Z,21.10
2017-08-09T07:32:15.394Z,22.10
2017-08-09T07:34:43.473Z,22.60
2017-08-09T07:37:11.546Z,22.90
2017-08-09T07:39:39.631Z,23.00
2017-08-09T07:42:07.703Z,22.90
2017-08-09T07:44:35.783Z,22.80
2017-08-09T07:47:03.847Z,22.70
2017-08-09T07:49:31.924Z,22.30
2017-08-09T07:51:59.994Z,21.40
2017-08-09T07:54:28.101Z,20.00
2017-08-09T07:56:56.183Z,19.60
2017-08-09T07:59:24.243Z,19.90
2017-08-09T08:01:52.323Z,21.40
2017-08-09T08:04:20.401Z,22.70
2017-08-09T08:06:48.512Z,23.50
2017-08-09T08:09:16.578Z,22.00
2017-08-09T08:11:44.660Z,21.00
2017-08-09T08:14:12.744Z,20.50
2017-08-09T08:16:40.815Z,21.40
2017-08-09T08:19:08.895Z,21.30
2017-08-09T08:21:36.979Z,22.00
2017-08-09T08:24:05.063Z,23.40
2017-08-09T08:26:33.187Z,24.40
2017-08-09T08:29:01.258Z,24.90
2017-08-09T08:31:30.148Z,25.50
2017-08-09T08:33:58.251Z,26.00
2017-08-09T08:36:26.325Z,23.50
2017-08-09T08:38:54.402Z,23.80
2017-08-09T08:41:22.484Z,24.20
2017-08-09T08:46:27.787Z,24.80
2017-08-09T08:48:55.876Z,26.20
2017-08-09T08:51:23.963Z,26.30
2017-08-09T08:53:52.130Z,26.70
2017-08-09T08:56:20.214Z,27.10
2017-08-09T08:58:48.295Z,25.90
2017-08-09T09:01:16.380Z,27.10
2017-08-09T09:03:44.451Z,24.90
2017-08-09T09:06:12.527Z,25.70
2017-08-09T09:08:40.618Z,27.30
2017-08-09T09:11:08.699Z,28.40
2017-08-09T09:13:36.779Z,29.00
2017-08-09T09:16:04.850Z,28.80
2017-08-09T09:18:32.927Z,28.30
2017-08-09T09:21:01.012Z,28.60
2017-08-09T09:23:29.081Z,25.50
2017-08-09T09:25:57.194Z,24.10
2017-08-09T09:28:25.267Z,24.10
2017-08-09T09:30:53.335Z,23.00
2017-08-09T09:33:21.425Z,21.50
2017-08-09T09:35:49.505Z,21.80
2017-08-09T09:38:17.591Z,23.20
2017-08-09T09:40:45.662Z,24.50
2017-08-09T09:43:13.747Z,24.40
2017-08-09T09:45:41.807Z,23.00
2017-08-09T09:48:09.879Z,23.20
2017-08-09T09:50:37.967Z,24.90
2017-08-09T09:53:06.051Z,26.20
2017-08-09T09:55:34.120Z,27.30
2017-08-09T09:58:02.208Z,28.80
2017-08-09T10:00:30.270Z,29.20
2017-08-09T10:02:58.352Z,28.70
2017-08-09T10:05:26.419Z,29.00
2017-08-09T10:07:54.520Z,28.90
2017-08-09T10:10:22.592Z,28.40
2017-08-09T10:12:50.671Z,25.80
2017-08-09T10:15:18.768Z,25.50
2017-08-09T10:17:46.835Z,26.10
2017-08-09T10:20:14.912Z,26.90
2017-08-09T10:22:42.976Z,28.00
2017-08-09T10:25:11.058Z,29.20
2017-08-09T10:27:39.138Z,29.80
2017-08-09T10:30:07.222Z,28.60
2017-08-09T10:32:35.290Z,27.70
2017-08-09T10:35:03.391Z,27.20
2017-08-09T10:37:31.472Z,26.90
2017-08-09T10:39:59.546Z,27.10
2017-08-09T10:42:27.617Z,26.60
2017-08-09T10:44:55.692Z,27.60
2017-08-09T10:47:23.775Z,27.40
2017-08-09T10:49:51.853Z,27.10
2017-08-09T10:52:19.924Z,28.70
2017-08-09T10:54:47.999Z,27.30
2017-08-09T10:57:16.491Z,27.80
2017-08-09T10:59:44.565Z,28.60
2017-08-09T11:02:12.647Z,29.20
2017-08-09T11:04:40.716Z,29.60
2017-08-09T11:07:08.801Z,30.10
2017-08-09T11:09:36.912Z,30.40
2017-08-09T11:12:04.989Z,30.80
2017-08-09T11:14:33.060Z,29.20
2017-08-09T11:17:01.140Z,29.40
2017-08-09T11:19:29.211Z,30.00
2017-08-09T11:21:57.295Z,30.20
2017-08-09T11:24:25.375Z,30.40
2017-08-09T11:26:53.455Z,30.10
2017-08-09T11:29:21.523Z,30.60
2017-08-09T11:31:49.600Z,29.30
2017-08-09T11:34:17.699Z,27.00
2017-08-09T11:36:45.767Z,27.40
2017-08-09T11:39:13.883Z,27.70
2017-08-09T11:41:41.951Z,29.10
2017-08-09T11:44:10.032Z,28.40
2017-08-09T11:46:38.098Z,27.80
2017-08-09T11:49:06.178Z,27.30
2017-08-09T11:51:34.250Z,27.40
2017-08-09T11:54:02.319Z,29.40
2017-08-09T11:56:30.390Z,30.90
2017-08-09T11:58:58.462Z,31.30
2017-08-09T12:01:26.532Z,31.00
2017-08-09T12:04:00.292Z,30.50
2017-08-09T12:06:43.287Z,30.00
2017-08-09T12:09:31.049Z,28.90
2017-08-09T12:11:59.124Z,27.90
2017-08-09T12:14:27.204Z,29.10
2017-08-09T12:16:55.276Z,29.30
2017-08-09T12:19:23.359Z,29.00
2017-08-09T12:21:51.437Z,29.00
2017-08-09T12:24:19.499Z,27.00
2017-08-09T12:26:47.583Z,28.60
2017-08-09T12:29:15.655Z,29.00
2017-08-09T12:31:43.756Z,28.90
2017-08-09T12:34:11.827Z,28.20
2017-08-09T12:36:39.907Z,26.90
2017-08-09T12:39:07.978Z,27.40
2017-08-09T12:41:36.057Z,28.00
2017-08-09T12:44:04.128Z,28.60
2017-08-09T12:46:32.208Z,28.90
2017-08-09T12:49:00.274Z,28.90
2017-08-09T12:51:28.359Z,29.30
2017-08-09T12:53:56.434Z,29.20
2017-08-09T12:56:24.505Z,28.60
2017-08-09T12:58:52.585Z,28.40
2017-08-09T13:01:20.667Z,28.50
2017-08-09T13:03:48.738Z,28.30
2017-08-09T13:06:16.819Z,27.90
2017-08-09T13:08:44.898Z,27.20
2017-08-09T13:11:12.990Z,27.30
2017-08-09T13:13:41.064Z,27.30
2017-08-09T13:16:09.138Z,27.30
2017-08-09T13:18:37.212Z,27.30
2017-08-09T13:21:05.282Z,27.20
2017-08-09T13:23:33.362Z,27.00
2017-08-09T13:26:01.423Z,26.80
2017-08-09T13:28:29.495Z,26.80
2017-08-09T13:30:57.571Z,26.80
2017-08-09T13:33:25.645Z,26.90
2017-08-09T13:35:53.722Z,27.10
2017-08-09T13:38:21.796Z,27.20
2017-08-09T13:40:49.887Z,27.50
2017-08-09T13:43:17.958Z,27.60
2017-08-09T13:45:46.038Z,28.10
2017-08-09T13:48:14.111Z,28.30
2017-08-09T13:50:42.186Z,28.30
2017-08-09T13:53:10.260Z,27.30
2017-08-09T13:55:38.338Z,27.30
2017-08-09T13:58:06.411Z,27.30
2017-08-09T14:00:34.494Z,27.40
2017-08-09T14:03:02.581Z,27.10
2017-08-09T14:05:30.658Z,27.10
2017-08-09T14:07:58.739Z,26.80
2017-08-09T14:10:26.811Z,26.70
2017-08-09T14:12:54.891Z,26.30
2017-08-09T14:15:22.977Z,26.20
2017-08-09T14:17:51.085Z,26.10
2017-08-09T14:20:19.134Z,26.10
2017-08-09T14:22:47.210Z,26.10
2017-08-09T14:25:15.289Z,26.10
2017-08-09T14:27:43.370Z,26.10
2017-08-09T14:30:11.448Z,26.30
2017-08-09T14:32:39.518Z,26.50
2017-08-09T14:35:07.600Z,26.90
2017-08-09T14:37:35.678Z,26.90
2017-08-09T14:40:03.753Z,27.10
2017-08-09T14:42:31.828Z,26.90
2017-08-09T14:44:59.908Z,26.60
2017-08-09T14:47:27.974Z,26.70
2017-08-09T14:49:56.056Z,26.60
2017-08-09T14:52:24.132Z,26.50
2017-08-09T14:54:52.288Z,26.30
2017-08-09T14:57:20.363Z,26.40
2017-08-09T14:59:48.451Z,26.00
2017-08-09T15:02:16.530Z,25.70
2017-08-09T15:04:44.606Z,25.80
2017-08-09T15:07:12.689Z,25.80
2017-08-09T15:09:40.760Z,25.70
2017-08-09T15:12:08.851Z,25.60
2017-08-09T15:14:36.927Z,25.60
2017-08-09T15:17:05.002Z,25.60
2017-08-09T15:19:33.079Z,25.70
2017-08-09T15:22:01.159Z,25.50
2017-08-09T15:24:29.235Z,25.50
2017-08-09T15:26:57.316Z,25.30
2017-08-09T15:29:25.391Z,25.30
2017-08-09T15:31:53.482Z,25.20
2017-08-09T15:34:21.547Z,25.30
2017-08-09T15:36:49.629Z,25.20
2017-08-09T15:39:17.698Z,25.10
2017-08-09T15:41:45.779Z,24.90
2017-08-09T15:44:13.860Z,25.00
2017-08-09T15:46:42.835Z,25.00
2017-08-09T15:49:10.911Z,25.00
2017-08-09T15:51:38.998Z,25.10
2017-08-09T15:54:07.252Z,25.20
2017-08-09T15:56:35.540Z,25.10
2017-08-09T15:59:03.604Z,25.10
2017-08-09T16:01:31.671Z,24.90
2017-08-09T16:03:59.756Z,24.80
2017-08-09T16:06:27.829Z,24.80
2017-08-09T16:08:55.899Z,24.80
2017-08-09T16:11:23.977Z,24.90
2017-08-09T16:13:52.042Z,24.90
2017-08-09T16:16:20.130Z,24.90
2017-08-09T16:18:48.200Z,25.10
2017-08-09T16:21:16.296Z,25.00
2017-08-09T16:23:44.440Z,25.10
2017-08-09T16:26:12.523Z,25.20
2017-08-09T16:28:40.597Z,25.30
2017-08-09T16:31:08.686Z,25.20
2017-08-09T16:33:36.755Z,25.00
2017-08-09T16:36:04.849Z,24.70
2017-08-09T16:38:32.923Z,24.70
2017-08-09T16:41:01.008Z,24.50
2017-08-09T16:43:29.075Z,24.30
2017-08-09T16:45:57.156Z,24.10
2017-08-09T16:48:25.247Z,24.20
2017-08-09T16:50:53.324Z,24.20
2017-08-09T16:53:21.419Z,24.20
2017-08-09T16:55:49.484Z,24.20
2017-08-09T16:58:17.571Z,24.20
2017-08-09T17:00:45.647Z,24.20
2017-08-09T17:03:13.734Z,24.10
2017-08-09T17:05:41.802Z,24.10
2017-08-09T17:08:09.886Z,24.10
2017-08-09T17:10:37.962Z,24.10
2017-08-09T17:13:06.046Z,24.00
2017-08-09T17:15:34.116Z,24.00
2017-08-09T17:18:02.190Z,24.00
2017-08-09T17:20:30.270Z,23.90
2017-08-09T17:22:58.356Z,23.90
2017-08-09T17:25:26.427Z,23.80
2017-08-09T17:27:54.499Z,23.80
2017-08-09T17:30:22.587Z,23.90
2017-08-09T17:32:50.656Z,23.70
2017-08-09T17:35:18.749Z,23.60
2017-08-09T17:37:46.811Z,23.50
2017-08-09T17:40:14.906Z,23.40
2017-08-09T17:42:42.981Z,23.40
2017-08-09T17:45:11.162Z,23.40
2017-08-09T17:47:39.232Z,23.40
2017-08-09T17:50:07.310Z,23.20
2017-08-09T17:52:35.394Z,23.30
2017-08-09T17:55:03.480Z,23.30
2017-08-09T17:57:31.554Z,23.20
2017-08-09T17:59:59.635Z,23.10
2017-08-09T18:02:27.716Z,23.00
2017-08-09T18:04:55.796Z,23.00
2017-08-09T18:07:23.867Z,22.90
2017-08-09T18:09:51.944Z,22.90
2017-08-09T18:12:20.024Z,22.80
2017-08-09T18:14:48.191Z,22.80
2017-08-09T18:17:16.856Z,22.80
2017-08-09T18:19:55.742Z,22.70
2017-08-09T18:22:23.816Z,22.70
2017-08-09T18:24:51.892Z,22.70
2017-08-09T18:27:19.960Z,22.60
2017-08-09T18:29:48.034Z,22.70
2017-08-09T18:32:16.112Z,22.60
2017-08-09T18:34:44.187Z,22.60
2017-08-09T18:37:12.271Z,22.50
2017-08-09T18:39:40.356Z,22.60
2017-08-09T18:42:08.418Z,22.60
2017-08-09T18:44:36.495Z,22.50
2017-08-09T18:47:04.568Z,22.50
2017-08-09T18:49:32.672Z,22.40
2017-08-09T18:52:00.779Z,22.40
2017-08-09T18:54:28.859Z,22.30
2017-08-09T18:56:56.930Z,22.30
2017-08-09T18:59:25.018Z,22.30
2017-08-09T19:01:53.103Z,22.30
2017-08-09T19:04:21.180Z,22.30
2017-08-09T19:06:49.279Z,22.30
2017-08-09T19:09:17.350Z,22.20
2017-08-09T19:11:45.448Z,22.30
2017-08-09T19:14:13.515Z,22.10
2017-08-09T19:16:41.598Z,22.10
2017-08-09T19:19:09.687Z,22.10
2017-08-09T19:21:37.787Z,22.20
2017-08-09T19:24:05.868Z,22.10
2017-08-09T19:26:33.944Z,22.20
2017-08-09T19:29:02.043Z,22.20
2017-08-09T19:31:30.140Z,22.20
2017-08-09T19:33:58.242Z,22.20
2017-08-09T19:36:26.332Z,22.20
2017-08-09T19:38:54.412Z,22.20
2017-08-09T19:41:22.493Z,22.20
2017-08-09T19:43:50.579Z,22.20
2017-08-09T19:46:18.670Z,22.20
2017-08-09T19:48:46.760Z,22.10
2017-08-09T19:51:14.840Z,22.10
2017-08-09T19:53:42.916Z,22.00
2017-08-09T19:56:11.003Z,22.00
2017-08-09T19:58:39.085Z,21.90
2017-08-09T20:01:07.169Z,22.00
2017-08-09T20:03:35.244Z,22.00
2017-08-09T20:06:03.322Z,22.00
2017-08-09T20:08:31.400Z,22.00
2017-08-09T20:10:59.468Z,21.90
2017-08-09T20:13:27.554Z,21.90
2017-08-09T20:15:55.647Z,21.90
2017-08-09T20:18:23.728Z,21.90
2017-08-09T20:20:51.824Z,22.00
2017-08-09T20:23:19.924Z,22.00
2017-08-09T20:25:48.021Z,22.00
2017-08-09T20:28:16.107Z,22.00
2017-08-09T20:30:44.198Z,22.00
2017-08-09T20:33:12.287Z,22.00
2017-08-09T20:35:40.368Z,22.00
2017-08-09T20:38:08.449Z,21.80
2017-08-09T20:40:36.529Z,21.80
2017-08-09T20:43:04.644Z,21.60
2017-08-09T20:45:32.768Z,21.60
2017-08-09T20:48:00.850Z,21.50
2017-08-09T20:50:28.939Z,21.60
2017-08-09T20:52:57.015Z,21.50
2017-08-09T20:55:25.088Z,21.50
2017-08-09T20:57:54.150Z,21.50
2017-08-09T21:00:22.228Z,21.30
2017-08-09T21:02:50.294Z,21.30
2017-08-09T21:05:18.654Z,21.20
2017-08-09T21:07:47.184Z,21.20
2017-08-09T21:10:15.599Z,21.10
2017-08-09T21:12:43.994Z,21.00
2017-08-09T21:15:12.571Z,20.80
2017-08-09T21:17:40.947Z,20.60
2017-08-09T21:20:09.356Z,20.50
2017-08-09T21:22:37.480Z,20.40
2017-08-09T21:25:05.566Z,20.40
2017-08-09T21:27:33.635Z,20.50
2017-08-09T21:30:01.714Z,20.50
2017-08-09T21:32:29.790Z,20.40
2017-08-09T21:34:57.864Z,20.30
2017-08-09T21:37:25.950Z,20.30
2017-08-09T21:39:54.031Z,20.30
2017-08-09T21:42:22.127Z,20.10
2017-08-09T21:44:50.207Z,20.10
2017-08-09T21:47:18.282Z,20.00
2017-08-09T21:49:46.358Z,20.10
2017-08-09T21:52:14.475Z,20.00
2017-08-09T21:54:42.519Z,19.90
2017-08-09T21:57:10.586Z,19.90
2017-08-09T21:59:38.680Z,19.80
2017-08-09T22:02:06.763Z,19.80
2017-08-09T22:04:34.843Z,19.80
2017-08-09T22:07:02.923Z,19.80
2017-08-09T22:09:31.003Z,19.80
2017-08-09T22:11:59.075Z,19.90
2017-08-09T22:14:27.190Z,20.00
2017-08-09T22:16:55.257Z,19.80
2017-08-09T22:19:23.342Z,19.80
2017-08-09T22:21:51.419Z,19.80
2017-08-09T22:24:19.492Z,19.90
2017-08-09T22:26:47.572Z,19.90
2017-08-09T22:29:15.641Z,20.00
2017-08-09T22:31:43.727Z,19.90
2017-08-09T22:34:11.795Z,19.80
2017-08-09T22:36:39.875Z,19.80
2017-08-09T22:39:07.942Z,19.80
2017-08-09T22:41:36.022Z,19.70
2017-08-09T22:44:04.092Z,19.50
2017-08-09T22:46:32.169Z,19.50
2017-08-09T22:49:00.239Z,19.30
2017-08-09T22:51:28.320Z,19.30
2017-08-09T22:53:56.415Z,19.30
2017-08-09T22:56:24.487Z,19.40
2017-08-09T22:58:52.588Z,19.40
2017-08-09T23:01:20.677Z,19.40
2017-08-09T23:03:49.523Z,19.50
2017-08-09T23:06:17.609Z,19.50
2017-08-09T23:08:45.696Z,19.50
2017-08-09T23:11:13.790Z,19.40
2017-08-09T23:13:41.892Z,19.50
2017-08-09T23:16:10.002Z,19.30
2017-08-09T23:18:38.082Z,19.40
2017-08-09T23:21:06.152Z,19.50
2017-08-09T23:23:34.248Z,19.50
2017-08-09T23:26:02.347Z,19.40
2017-08-09T23:28:30.431Z,19.40
2017-08-09T23:30:58.507Z,19.30
2017-08-09T23:33:26.586Z,19.30
2017-08-09T23:35:54.663Z,19.10
2017-08-09T23:38:22.763Z,19.20
2017-08-09T23:40:50.838Z,19.10
2017-08-09T23:43:18.912Z,19.00
2017-08-09T23:45:46.990Z,19.00
2017-08-09T23:48:15.059Z,18.90
2017-08-09T23:50:43.141Z,19.00
2017-08-09T23:53:11.202Z,19.10
2017-08-09T23:55:39.282Z,19.00
2017-08-09T23:58:07.362Z,18.90
